Hundreds of Positions Available Nationwide

Apply for an Exciting Career Opportunity!


The following jobs are currently available.
Click on the job to find out more about the requirements for the position.

#Job IDTitle# OpeningsLocationRateDurationPostedCategory 
1 192798 Program Manager 1Fremont, CAUp to $75.00 DOE4 mos07/23/2021PROO,
2 192799 Procurement Agent 2 2Hazelwood, MO$DOE6 months07/23/2021PROO,
3 192800 Aircraft Assembly Technician 10Mesa, AZ$DOE6 months07/23/2021MANO,
4 192801 Configuration Manager 1Canoga Park, CA$DOE7 months07/23/2021ENGO,
5 192802 Design and Analysis Engineer 4 2El Segundo, CA$DOE6 months07/23/2021ENGO,
6 192804 Configuration Analyst II 1Orlando, FLUp to $75.00 DOE9 months07/23/2021ENGO, S
7 192805 Data Scientist 1Orlando, FLUp to $95.00 DOE9 months07/23/2021ENGO,
8 192806 Procurement Specialist 1Simi Valley, CA$28 to $34.00 DOE6 months07/23/2021PROO,
9 192807 Test Engineer 1Bothell, WA$38 to $48.00 DOE12 Months07/23/2021ENGO,
10 192808 Process Engineer 1Everett, WAUp to $56.00 DOE5-6 months07/23/2021ENGO,
11 192809 Structural Analysis Engineer 3 3Ridley Park, PA$DOE12 Months07/23/2021ENGO,
12 192810 Account Coordinator 1Plainsboro, NJ$DOE7 months07/23/2021PROO,
13 192812 Manufacturing Engineer 2 1Seal Beach, CA$DOE5 Months07/23/2021ENGO,
14 192815 Material Handler 1Auburn, ALUp to $13.00 DOE12 Months07/23/2021GENO,
15 192816 Production/Inventory Coordinator A 1North Charleston, SC$DOE6 Months07/23/2021GENO,
16 192817 Test & Evaluation Engineer 3 1Heath, OH$DOE6 Months07/23/2021ENGO, S
17 192818 Material Handler 1Auburn, ALUp to $13.00 DOE12 Months07/23/2021GENO,
18 192819 HR Coordinator 1Miami, FLUp to $21.00 DOE2 months07/23/2021PROO,
19 192820 Adobe DT/ Launch Engineer 1Calsbad, CAUp to $54.36 DOE6 months07/23/2021ENGO,
20 192821 Lab Technician 1Alachua, FLUp to $18.00 DOE3 months07/23/2021SCIO,
21 192822 Packer 1Norcross, GAUp to $14.00 DOE11 Months07/23/2021MANO,
22 192766 Manufacturing Technician 2 1Austin, TXUp to $18.00 DOE12 mos07/22/2021MANO,
23 192767 Manufacturing Technician 2 1Austin, TXUp to $18.00 DOE12 MOS07/22/2021MANO,
24 192769 Test Engineer II 1Orlando, FLUp to $65.00 DOE9 months07/22/2021ENGO, S
25 192771 Sr Nurse Practitioner II 1Marietta, GA$40 to $45.00 DOE12 months07/22/2021PROO,
26 192772 SAP Supply Chain Analyst 1Remote, CA$42 to $52.00 DOE5 months07/22/2021PROO,
27 192773 Electronics Technician 1Owego, NY$DOE12 months07/22/2021MANO, S
28 192774 Lab Technician 1Rochester, NYUp to $24.00 DOE12 MOS07/22/2021SCIO,
29 192776 Assembler 1Gardena, CAUp to $20.00 DOE6 months07/22/2021MANO,
30 192777 HR Generalist 1Pittsburgh, PAUp to $30.00 DOE4 Months07/22/2021PROO,
31 192778 Expeditor 1Simi Valley, CA$23 to $28.00 DOE6 months07/22/2021PROO,
32 192779 Supplier Quality Specialist 3 1Little Rock AFB, AR$DOE6 Months07/22/2021MANO,
33 192780 Mechanical Drafter 2Simi Valley, CA$27 to $32.00 DOE6 months07/22/2021ENGO,
34 192781 Quality Specialist III 1Ward Hill, MAUp to $30.00 DOE5 Months07/22/2021PROO,
35 192783 Dispatcher 1Mesa, AZ$DOE12 Months07/22/2021PROO,
36 192785 Business Consultant - Level 2 1Burbank, CA$DOE5 Months07/22/2021PROO,
37 192786 Business Process Analyst 4 1Mesa, AZ$DOE6 Months07/22/2021PROO,
38 192787 Machine Operator 1High Point, NCUp to $13.99 DOE10 months07/22/2021MANO,
39 192788 Software Engineer 3 2Hazelwood, MO$DOE6 Months07/22/2021ITO,
40 192789 IT Analyst 1Topeka, KS$26.89 to $32.07 DOE6 months07/22/2021ITO,
41 192790 Scientist I, Formulation 1Pleasanton, CAUp to $29.70 DOE12 Months07/22/2021SCIO,
42 192791 Manufactuing Technician 1Santa Clara, CAUp to $22.00 DOE12 months07/22/2021MANO,
43 192792 Machinist 3 1Commerce, CA$15.71 to $19.64 DOE6 months07/22/2021MANO,
44 192793 Assembler 3 1Sierra Vista, AZUp to $22.78 DOE12 months07/22/2021MANO,
45 192795 Manufacturing Technician 1Pleasanton, CAUp to $22.00 DOE12 months07/22/2021SCIO,
46 192796 Manufacturing Technician 1Pleasanton, CAUp to $24.20 DOE12 months07/22/2021SCIO,
47 192797 Sr Systems Engineer 1Northampton, MAUp to $57.69 DOE27 months07/22/2021ENGO, S
48 192729 Mechanical Engineer 1Carlsbad, CAUp to $64.97 DOE5 mos07/21/2021ENGO,
49 192732 Logistics Representative 2 1Pease ANG Base, NH$DOE12 months07/21/2021ENGO, S
50 192735 Computer Specialist 1Wilmington, MA$32 to $48.00 DOE6 months07/21/2021ITO,
51 192736 Production/Inventory Coordinator C 3Kennedy Space Center, FL$DOE3 Months07/21/2021ENGO,
52 192737 Lab Technician 1Cary, NC$DOE5 months07/21/2021ENGO,
53 192738 Accounts Payable Specialist 1King Of Prussia, PA$DOE3 months07/21/2021ADMO,
54 192739 Supply Chain Support 1King of Prussia, PA$DOE7 months07/21/2021LOGO,
55 192740 Staff Analyst 2 3Everett, WA$DOE2 Months07/21/2021PROO,
56 192741 Programmer Analyst 3 1Tukwila, WA$DOE5 Months07/21/2021ITO,
57 192742 Help Desk Analyst I 1Topeka, KS$25 to $32.00 DOE6 months07/21/2021ITO,
58 192743 Systems Engineer Level V 1Orlando, FLUp to $90.00 DOE9 Months07/21/2021ENGO, S
59 192745 Staff Analyst 2 3Everett, WA$DOE2 Months07/21/2021PROO,
60 192746 OFP Software Engineer 1Arlington, TX$DOE12 months07/21/2021ITO, S
61 192747 Engineer Network 3 1Linthicum, MD$43.79 to $54.74 DOE24 months07/21/2021ENGO, TS
62 192748 Business Analyst - Level lll 1Remote, TX$50 to $60.00 DOE12 Months07/21/2021PROO,
63 192750 Validation Specialist 1Austin, ,TXUp to $27.50 DOE12 months07/21/2021SCIO,
64 192751 Test Engineer III 1Orlando, FLUp to $90.00 DOE9 months07/21/2021ENGO, OM
65 192752 Test Engineer IV 1Orlando, FLUp to $95.00 DOE9 months07/21/2021ENGO, OM
66 192753 QA Software Engineer 1Orlando, FL$DOE5 months07/21/2021ITO,
67 192754 Production Associate 1Austin, TXUp to $32.00 DOE12 months07/21/2021SCIO,
68 192756 Inventory Site Specialist 1Thousand Oaks, CAUp to $19.00 DOE3 Months07/21/2021ADMO,
69 192758 Manufacturing Technician 1San Diego, CAUp to $25.00 DOE12 months07/21/2021ENGO, OM
70 192760 Software Engineer 4 2El Segundo, CA$DOE6 Months07/21/2021ITO, OM
71 192761 Production/Inventory Coordinator A 1Mesa, AZ$DOE10 Months07/21/2021GENO,
72 192762 Scientist I, Cell Biology 1Carlsbad, CA.Up to $22.50 DOE12 Months07/21/2021SCIO,
73 192763 Manufacturing Technician ll 1Austin, TXUp to $18.00 DOE12 Months07/21/2021MANO,
74 192693 Business Analyst 1Hillsboro, ORUp to $22.00 DOE5 mos07/20/2021PROO,
75 192694 Production Handler 1Petaluma, CAUp to $23.00 DOE12 mos07/20/2021GENO,
76 192695 Test & Evaluation Lab Technician 2 1Berkeley, MO$DOE12 months07/20/2021ENGO,
77 192696 Supply Chain Specialist 1 1Ridley Park, PA$DOE6 months07/20/2021ENGO,
78 192697 Visitor Relations Specialist B 1Mukilteo, WA$DOE5 months07/20/2021PROO,
79 192699 Embedded S/W Engineer III 1Orlando, FLUp to $80.00 DOE12 months07/20/2021ITO, OM
80 192700 SMT Operator 1Marion, MA$DOE6 months07/20/2021MANO,
81 192705 Program Cost Schedule Control Analyst 3 1Dulles, VA$56.02 to $70.02 DOE6 months07/20/2021PROO,
82 192706 Test Technician 1Owego, NY$20 to $30.00 DOE15/mo07/20/2021MANO,
83 192707 Systems Administrator 3 1Redondo Beach, CA$54.14 to $67.67 DOE12 months07/20/2021ITO, TS
84 192708 Mechanical Design Engineer 1Orlando, FLUp to $90.00 DOE9 months07/20/2021ENGO, S
85 192709 Mechanical Design Level IV 1Orlando, FLUp to $95.00 DOE9 Months07/20/2021ENGO, S
86 192710 Mechanical Design Level lll 1Orlando, FLUp to $95.00 DOE9 Months07/20/2021ENGO, S
87 192711 Mechanical Design Engineer IV 1Orlando, FLUp to $95.00 DOE9 months07/20/2021ENGO, OM
88 192712 Systems Engineer V 1Orlando, FLUp to $90.00 DOE9 months07/20/2021ITO, S
89 192713 Integration & Test Engineer Level lll 1Orlando, FLUp to $80.00 DOE9 Months07/20/2021ENGO, S
90 192714 Electro-Mechanical Engineer IV 1Orlando, FLUp to $95.00 DOE9 months07/20/2021ENGO, S
91 192715 Hardware engineer Level lll 1Orlando, FLUp to $80.00 DOE9 Months07/20/2021ENGO, S
92 192716 Electro-Mechanical Engineer V 1Orlando, FLUp to $100.00 DOE9 months07/20/2021ENGO, S
93 192720 Design and Analysis Engineer 3 1OKlahoma City, OK$DOE6 Months07/20/2021ENGO, OM
94 192722 Inventory Control Clerk 1Brownsville, TX$17 to $24.00 DOE6 months07/20/2021GENO,
95 192723 Quality Technician I 1St. Louis, MOUp to $25.00 DOE5 Months07/20/2021MANO,
96 192724 Customer Service Rep 1Lenexa, KSUp to $16.00 DOE4 months07/20/2021PROO,
97 192725 Operations Associate 1Alachua, FLUp to $17.25 DOE5 months07/20/2021PROO,
98 192726 Customer Care Representative 1Lenexa, KSUp to $16.00 DOE5 months07/20/2021PROO,
99 192727 Property/Asset Control Support 1 2Redondo Beach, CA$18.01 to $22.51 DOE12 months07/20/2021GENO, S
100 192728 Guidance, Navigation & Control Engineer 5 1Everett, WA$DOE12 Months07/20/2021ENGO,
101 192660 Nurse Practitioner 3 1Everett, WA$DOE12 months07/19/2021PROO,
102 192662 Design and Analysis Engineer 1 1St. Louis, MO$DOE6 months07/19/2021ENGO,
103 192663 CNC Operator 1Santa Maria, CAUp to $14.00 DOE3 months07/19/2021MANO,
104 192664 Cost Accountant 1Santa Maria, CA$35 to $38.00 DOEDirect07/19/2021PROO,
105 192666 Manufacturing Technician 1Logan, UTUp to $17.25 DOE12 mos07/19/2021MANO,
106 192667 Manufacturing Technician 1Logan, UTUp to $17.25 DOE12 mos07/19/2021MANO,
107 192669 Manufacturing Technician 1Logan, UTUp to $16.50 DOE12 mos07/19/2021MANO,
108 192670 Clean Room Operator 1Miami, OKUp to $14.85 DOE12 mos07/19/2021GENO,
109 192671 Buyer 1Tewksbury, MAUp to $38.00 DOE12 mos07/19/2021PROO,
110 192672 Procurement Agent 1 3Seattle, WA$DOE12 Months07/19/2021PROO,
111 192673 Clean Room Operator 1Miami, OKUp to $14.85 DOE12 mos07/19/2021GENO,
112 192674 Clean Room Operator 1Miami, OKUp to $14.85 DOE6 mos07/19/2021GENO,
113 192675 Clean Room Operator 1Miami, OKUp to $14.85 DOE12 mos07/19/2021GENO,
114 192676 Clean Room Operator 1Miami, OKUp to $14.85 DOE12 mos07/19/2021GENO,
115 192677 Clean Room Operator 1Miami, OKUp to $14.85 DOE12 mos07/19/2021GENO,
116 192678 Clean Room Operator 1Miami, OKUp to $14.85 DOE12 mos07/19/2021GENO,
117 192680 Final Assembly Inspector 2 3Beltsville, MD$18.94 to $23.67 DOE12 months07/19/2021MANO,
118 192681 Procurement Specialist 1King of Prussia, PA$DOE8 months07/19/2021PROO,
119 192682 Accounts Payable Specialist 1King of Prussia, PAUp to $20.00 DOE3 months07/19/2021ADMO,
120 192683 Material Handler 1 1El Segundo, CA$14.64 to $18.29 DOE12 months07/19/2021MANO,
121 192684 Sr Project Engineer 1Northampton, MA.Up to $65.00 DOE5 Months07/19/2021ENGO, OM
122 192685 Aircraft Structures Mechanic 2 19Palmdale, CA$18.09 to $30.03 DOE3 moths07/19/2021MANO,
123 192686 Aircraft Structures Mechanic 1 6Palmdale, CAUp to $26.92 DOE3 months07/19/2021MANO,
124 192689 Recruiter 1Plano, TXUp to $42.00 DOE12 months07/19/2021PROO,
125 192690 Software Engineer 1Arlington, TXUp to $35.00 DOE12 months07/19/2021ITO, S
126 192691 Electrical Engineer 1Clearwater, FL$25 to $39.00 DOE12 Months07/19/2021ENGO, OM
127 192627 Engineer/Scientist I QC 1Fremont, CAUp to $30.00 DOE4 mos07/16/2021SCIO,
128 192628 Administrative Assistant 3Ontario, CAUp to $17.00 DOE4-5 months07/16/2021ADMO,
129 192629 Material Handler 2Walton, KYUp to $14.00 DOE2-3 months07/16/2021GENO,
130 192630 Stock Clerk 1College Park, GA$16 to $18.00 DOE6 months07/16/2021GENO,
131 192632 Manufacturing Planner II 1Ocala, FLUp to $36.00 DOE6 months07/16/2021MANO,
132 192633 Engineer II 1Everett, WA$DOE6 months07/16/2021ENGO,
133 192634 Quality Specialist II 1Detroit, MI$DOE6 mos07/16/2021PROO,
134 192635 Talent Acquisition Business Partner 3 1Remote, CAUp to $60.15 DOE12 months07/16/2021ADMO,
135 192636 Microelectronic Technician 1 3Manhattan Beach, CAUp to $16.82 DOE9 months07/16/2021MANO,
136 192637 Associate Manufacturing Technician 1Pleasanton, CAUp to $22.00 DOE12 mos07/16/2021MANO,
137 192638 Talent Acquisition Representative 2 1Newport News, VA$26.94 to $35.44 DOE12 months07/16/2021PROO,
138 192639 Service Desk Analyst 1Remote, TXUp to $28.00 DOE6+ months07/16/2021ITO,
139 192641 Demand PLanner 1Santa Monica, CA$42 to $45.00 DOE6 Months07/16/2021ADMO,
140 192644 Mechanical Engineer II 1Anaheim, CA.Up to $40.00 DOE12 Months07/16/2021ENGO,
141 192645 QA Specialist 3 1Pleasanton, CAUp to $48.00 DOE6 mos07/16/2021PROO,
142 192646 Assembler I 1Santa Maria, CA$DOE3 months07/16/2021MANO,
143 192647 General Laborer I 1Santa Maria, CA$DOE3 months07/16/2021MANO,
144 192649 Sr Cost Accountant 1El Segundo, CA$35 to $39.00 DOEDirect07/16/2021PROO,
145 192651 QA Technician 1Bedford, MAUp to $30.00 DOE2 months07/16/2021SCIO,
146 192652 Technical Specialist 1Tewksbury, MAUp to $35.00 DOE7 months07/16/2021ITO,
147 192653 Accounts Payable Clerk 1Torrance, CA$17 to $22.00 DOE6 months07/16/2021PROO,
148 192654 Technical Application Specialist 1Tewksbury, MAUp to $35.00 DOE7 Months07/16/2021ITO,
149 192655 Lab Technician 1Santa Clara, CAUp to $20.26 DOE12 months07/16/2021SCIO,
150 192656 Production/Inventory Coordinator B 4Ladson, SC$DOE6 Months07/16/2021GENHSM,
151 192658 Programmer Analyst 3 1Everett, WA$DOE6.5 Months07/16/2021ITO,
152 192659 Physician 5 1Everett, WA$DOE12 Months07/16/2021PROO,
153 192590 Buyer 1 2Costa Mesa, CAUp to $20.00 DOE6 months07/15/2021ADMO,
154 192593 Client Support Specialist 1Batesville, IN$DOEPerm07/15/2021ADMO,
155 192596 Mech Sys Design & Anlys Engr 1 4Huntsville, AL$DOE6 Months07/15/2021ENGO, OM
156 192598 Electromechanical Engineer III 1Orlando, FLUp to $90.00 DOE9 months07/15/2021ENGO, S
157 192601 Mechanical Designer IV 1Grand Prairie, TXUp to $95.00 DOE9 months07/15/2021ENGO, OM
158 192603 Manufacturing Operations Analyst 3 4San Antonio, TX$DOE6 Months07/15/2021MANO, OM
159 192607 QA Engineer 1Syracuse, NY$DOE12 months07/15/2021ENGO,
160 192610 Reliability Engineer 1Camden, AR$DOE6 mnonths07/15/2021ENGO,
161 192611 Systems Engineer Level lll 1Orlando, FLUp to $95.00 DOE9 Months07/15/2021ENGO, S
162 192614 Loader 1Morrisville, NC$14 to $15.00 DOE3 Weeks07/15/2021GENO,
163 192615 Programmer Analyst 4 2Hazelwood, MO$DOE6 Months07/15/2021ITO,
164 192616 Accountant 1Lakeland, FLUp to $25.00 DOE6 months07/15/2021PROO,
165 192617 Test Engineer 1Owego, NY$DOE11 months07/15/2021ENGO, S
166 192619 Quality Specialist 1Remote, CA$DOE5 months07/15/2021MANO,
167 192620 Quality Inspector-Production 1Twinsburg, OH$28 to $30.00 DOE5-6 months07/15/2021MANO,
168 192621 Facilities Assistant 1Fort Bragg, NCUp to $16.73 DOE6 Months07/15/2021GENO, TS
169 192623 Gen Electro/Mech Assm Specialist D 1Germantown, MD$DOE6 Months07/15/2021ITO,
170 192624 Recruiter 1Arlington, TX$30 to $35.00 DOE6 Months07/15/2021PROO,
171 192626 Cad Designer 1MA-Wilmington, Up to $60.00 DOE507/15/2021ENGO, S
172 192559 Senior Software Engineer 1Pittsburgh, PAUp to $60.02 DOE5 mos07/14/2021ITO,
173 192561 Customer Service Rep 1Carson, CAUp to $18.00 DOE3 months07/14/2021ADMO,
174 192562 Components Engineer 1Canoga Park, CA$DOE7 months07/14/2021ENGO, S
175 192563 Embedded S/W Engineer III 1Grand Prairie, TXUp to $85.00 DOE11 months07/14/2021ITO, S
176 192565 Software QA 1Fort Worth, TX$22.88 to $68.00 DOE12 Months07/14/2021ITO, I
177 192566 Software Engineer 5Fort Worth, TX$30 to $90.00 DOE12 Months07/14/2021ITO, I
178 192567 Quality Assurance Engineer 1Marion, MA$35 to $58.00 DOE12 Months07/14/2021ENGO, OM
179 192568 Accounts Payable Admin Assistant 1King of Prussia, PAUp to $20.00 DOE5-6 months07/14/2021ADMO,
180 192569 Engineer Digital 3 2Linthicum, MDUp to $89.73 DOE12 months07/14/2021ENGO, S
181 192570 Industrial Engineer I 1Archbald, PAUp to $24.00 DOE9 months07/14/2021ENGO,
182 192571 Payroll Analyst/Auditor 1Lake Charles, LAUp to $33.06 DOE12 months07/14/2021PROO,
183 192572 Aircraft Electrician 3 4Norfolk, VA$18.28 to $32.35 DOE12 months07/14/2021MANO, S
184 192573 Sr Lead Electrical Engineer 1Batesville, IN$DOE12 months07/14/2021ENGO,
185 192574 Manufacturing Engineer Level ll 1Archbald, PAUp to $45.00 DOE9 Months07/14/2021ENGO,
186 192578 Software Test & Integration Engineer 2Colorado Springs, CO$DOE12 Months07/14/2021ENGO,
187 192579 Aircraft Electrical Mechanic D 1Waco, TXUp to $35.00 DOE5 months07/14/2021MANO, OM
188 192580 Procurement Coordinator C 1Seattle, WA$DOE12 Months07/14/2021PROO,
189 192582 Material & Process Engineer 4 1Orlando, FLUp to $95.00 DOE9 months07/14/2021ENGO, S
190 192584 Maintenance Engineer 3 1Tukwila, WA$DOE12 Months07/14/2021ENGO,
191 192585 Senior Treasury Specialist 1Remote, CA$DOE12 months07/14/2021PROO,
192 192586 Engineering Technician 2 - Clearance Required 1Newport News, VA$21.8 to $28.69 DOE6 months07/14/2021ENGO, CON
193 192587 Quality Inspector 1El Segundo, CA$26 to $28.00 DOEDirect07/14/2021MANO,
194 192588 Laboratory Technician 1North Kansas City, MO$DOE12 months07/14/2021SCIO,
195 192589 Quality Inspector 1El Segundo, CA$26 to $28.00 DOEDirect07/14/2021MANO,
196 192513 Tool & Fixture Specialist A 6New Orleans, LA$DOE5 months07/13/2021MANO,
197 192515 Software Engineer 1Northampton, MAUp to $75.00 DOE12 Months07/13/2021ITO, OM
198 192516 Manufacturing Test Technician 1Mason, OHUp to $25.00 DOE12 Months07/13/2021MANO,
199 192517 Manufacturing Technician 1Mason, OHUp to $20.00 DOE12 Months07/13/2021MANO,
200 192521 Recruiter Specialist 2 1Mesa, AZ$DOE12 Months07/13/2021PROO,
201 192522 Cable Assembler 8Clearwater, FL$DOE12 months07/13/2021MANO,
202 192523 Cloud Systems Administrator 1Topeka, KS$50 to $84.61 DOE6 months07/13/2021ITO,
203 192524 Sales & Operations Planning Associate 1Torrance, CA$25 to $30.00 DOE5 months07/13/2021PROO,
204 192526 Quality Assurance Engineer 1Syracuse, NY$25 to $35.00 DOE12 Months07/13/2021ENGO,
205 192532 Engineer Facilities 1 1Redondo Beach, CA$33.25 to $41.56 DOE12 months07/13/2021ENGO,
206 192533 Lab Assistant 1Cincinnati, OH$DOE12 mos07/13/2021SCIO,
207 192534 Property/Asset Control Support 2 1Northridge, CA$20.51 to $25.64 DOE6 months07/13/2021GENO, S
208 192535 Test Engineer III 1Orlando, FLUp to $80.00 DOE9 months07/13/2021ENGO, S
209 192536 Assembler 2 1Plymouth, MN$14.01 to $26.06 DOE12 months07/13/2021MANO,
210 192537 Assembler 2 3Madison, AL$13.34 to $16.67 DOE6 months07/13/2021MANO,
211 192539 Mechanical engineer Level lll 1Orlando, FLUp to $90.00 DOE9 Months07/13/2021ENGO, S
212 192544 Hardware Engineer IV 1Orlando, FLUp to $95.00 DOE9 months07/13/2021ENGO, OM
213 192545 Procurement Specialist 1Plano, TX$25 to $45.00 DOE6 months07/13/2021PROO, OM
214 192547 Manufacturing Engineer 1Fort Worth, TX$DOE12 months07/13/2021ENGO,
215 192548 Hardware Engineer IV 1Orlando, FLUp to $95.00 DOE9 months07/13/2021ENGO, OM
216 192549 Facilities Support Technician 1Offutt AFB, NEUp to $15.00 DOE6 months07/13/2021GENO,
217 192488 Scientist III 1Fremont, CAUp to $43.00 DOE6 months07/12/2021SCIO,
218 192489 Manufacturing Engineer II 1Austin, TXUp to $35.00 DOE12 mos07/12/2021ENGO,
219 192490 Manufacturing Engineer II 1Austin, TXUp to $32.00 DOE12 mos07/12/2021ENGO,
220 192491 Product Review Engineer 3 1Heath, OH$DOE6 months07/12/2021ENGO, S
221 192492 Sr Manufacturing Operator 1West Hills, CAUp to $18.00 DOE12 mos07/12/2021MANO,
222 192493 Product Review Engineer 2 1Heath, OH$DOE5 months07/12/2021ENGO,
223 192494 Product Review Engineer 3 1Heath, OH$DOE5 months07/12/2021ENGO,
224 192495 Regulatory Compliance Specialist 3 1Dickinson, ND$DOE12 months07/12/2021PROO,
225 192499 FPGA Design Engineer 1Salt Lake City, UT$65 to $80.00 DOE6 months07/12/2021ITO, S
226 192500 Assembly Technician II 1Broken Arrow, OKUp to $21.00 DOE12 months07/12/2021MANO, S
227 192507 E/M Assembler B 1Anaheim, CAUp to $17.50 DOE12 months07/12/2021MANO,
228 192508 Scientist I, Formulation 1Fremont, CA$DOE5 mos07/12/2021SCIO,
229 192509 Inspector 1Petaluma, CAUp to $23.58 DOE12 mos07/12/2021MANO,
230 192510 Inspector 1Petaluma, CAUp to $22.55 DOE12 mos07/12/2021MANO,
231 192511 Electrical Engineer 1Marion, MA$65 to $75.00 DOE14 Months07/12/2021ENGO, I
232 192512 Manufacturing Operator 1Petaluma, CAUp to $20.50 DOE12 Months07/12/2021MANO,
233 192465 HR Manager 1Lenexa, KS$DOE6 mos07/09/2021PROO,
234 192466 Service Parts Coordinator 1Tewksbury, MAUp to $25.00 DOE12 mos07/09/2021ADMO,
235 192467 Business Analsyt 1Remote, CA$25 to $30.00 DOE12 months07/09/2021PROO,
236 192468 Structural Analysis Engineer 2 3Ridley Park, PA$DOE12 Months07/09/2021ENGO, OM
237 192470 Database Engineer II 1Remote, TX$45 to $55.00 DOE12 months07/09/2021ITO,
238 192471 Designer 3 2Newport News, VA$28.24 to $37.15 DOE12 months07/09/2021ENGO, CON
239 192475 Data Entry Operator 2 1Radford, VA$14.12 to $17.65 DOE12 months07/09/2021ADMO,
240 192478 Technical Writer 1Hillsboro, ORUp to $36.06 DOE12 mos07/09/2021ITO,
241 192481 Senior Technical Support Representative 1Skaneateles, NY$26.44 to $31.25 DOEDirect07/09/2021ITO,
242 192482 Technical Support Representative 1Skaneateles, NY$19.23 to $26.44 DOEDirect07/09/2021ITO,
243 192484 QC Lab Technician 1Anaheim, CA$DOE1 month07/09/2021ENGO,
244 192485 Maintenance Electrician 2 1El Segundo, CA$17.56 to $21.95 DOE12 months07/09/2021MANO,
245 192486 Employee Services Specialist 3 15Mesa, AZ$DOE6 Months07/09/2021PROO,
246 192487 Lab Technician 1Florence, SCUp to $15.00 DOE12 Months07/09/2021SCIO,
247 192442 Accounts Payable Specialist 1King of Prussia, PA$DOE6 months07/08/2021ADMO,
248 192443 Stock Clerk 12Ontario, CAUp to $17.00 DOE2-3 months07/08/2021GENO,
249 192445 Systems Engineer III 1Grand Prairie, TXUp to $90.00 DOE9 months07/08/2021ENGO, OM
250 192447 Warehouse Shipper 1Milwaukee, WI$DOE12 months07/08/2021MANO,
251 192448 Assembler 3Acton, MA$DOE12 months07/08/2021MANO,
252 192450 Final Assembly Inspector 3 1Lake Charles, LA$24.64 to $29.63 DOE12 months07/08/2021MANO,
253 192451 Aircraft Assembly Technician-Vertical Lift 20Mesa, AZ$DOE12 Months07/08/2021MANO,
254 192453 QC Technician 1Pleasanton, CAUp to $24.20 DOE12 mos07/08/2021SCIO,
255 192454 Engineer Software 2 1Dulles, VA$54 to $67.50 DOE6 months07/08/2021ITO, TS
256 192455 Process Engineer 4Littleton, CO$DOE12 months07/08/2021ENGO,
257 192457 Electrical Engineer 1Marion, MA$DOE 07/08/2021ENGO, I
258 192458 Cable & Harness Technician 1Syracuse, NY$DOE12 months07/08/2021MANO,
259 192460 Systems Engineer 1Moorestown, NJ$DOE12 Months07/08/2021ITO, I
260 192462 Design and Analysis Engineer 4 1Tukwila, WA$DOE6 Months07/08/2021ENGO, OM
261 192464 Electrical Engineer 1Marion, MA$62 to $82.00 DOE1 year 2months07/08/2021ENGO, I
262 192422 Assembler 1Hillsboro, OR$15 to $18.00 DOE3 mos07/07/2021GENO,
263 192426 Structural Analysis Engineer 3 5Titusville, FL$DOE6 Months07/07/2021ENGHSM, OM
264 192428 Aircraft Machinist D (Machining) 2New Orleans, LA$DOE6 Months07/07/2021MANO,
265 192434 Administrative Assistant 1North Kansas City, MO$DOE12 months07/07/2021ADMO,
266 192435 Material Handler II 1Franklin, MAUp to $18.00 DOE12 mos07/07/2021GENO,
267 192437 Flight Line Technician 3Mesa, AZ$DOE12 Months07/07/2021MANO,
268 192438 Warehouse Material Handling 1Layton, UTUp to $24.24 DOE5 Months07/07/2021GENO, I
269 192440 Manufacturing Process Engineer 1Carlsbad, CAUp to $32.00 DOE11 Months07/07/2021ENGO,
270 192389 Sr Manufacturing Operator, Cell Therapy 1Princeton, NJUp to $30.00 DOE5 mos07/06/2021SCIO,
271 192390 Manufacturing Operator- Cell Therapy 1Princeton, NJUp to $25.00 DOE6 mos07/06/2021SCIO,
272 192391 Manufacturing Operator- Cell Therapy 1Princeton, NJUp to $25.00 DOE6 mos07/06/2021SCIO,
273 192392 E&T Ignite DX Manager 1Orlando, FLUp to $95.00 DOE9 months07/06/2021PROO, OM
274 192393 Hardware Engineer IV 1Grand Prairie, TXUp to $95.00 DOE9 months07/06/2021ITO, OM
275 192394 Electomechanical Engineer III 1Grand Prairie, TXUp to $90.00 DOE9 months07/06/2021ENGO, OM
276 192395 Reliability Engineer III 1Orlando, FLUp to $90.00 DOE9 months07/06/2021ENGO, S
277 192397 Systems Engineer III 1Orlando, FLUp to $80.00 DOE9 months07/06/2021ITO, S
278 192399 Systems Engineer IV 1Orlando, FLUp to $95.00 DOE9 months07/06/2021ITO, S
279 192400 Electronic Technician 1 4Melbourne, FLUp to $23.56 DOE12 months07/06/2021MANO, OM
280 192403 Systems Engineer Level lll 1Orlando, FLUp to $80.00 DOE9 Months07/06/2021ENGO, S
281 192404 Electromechanical Engineer IV 1Grand Prairie, TXUp to $100.00 DOE9 months07/06/2021ENGO, OM
282 192405 Material Handler 1Sunnyvale, CAUp to $20.00 DOE5 mos07/06/2021GENO,
283 192406 EE Technical Designer 3 3Oklahoma City, OK$DOE6 Months07/06/2021ENGO,
284 192407 EE Technical Designer 4 2Oklahoma City, OK$DOE6 Months07/06/2021ENGO,
285 192411 Engineer/Scientist I QC 1Fremont, CAUp to $28.00 DOE5 mos07/06/2021SCIO,
286 192412 Engineer/Scientist I QC 1Fremont, CAUp to $30.00 DOE4 Months07/06/2021SCIO,
287 192413 Assembler II 2Redmond, WA$18 to $25.00 DOE5-6 weeks07/06/2021MANO,
288 192416 Supply Chain Technical Coordinator 3 1Promontory, UTUp to $22.00 DOE3 months07/06/2021PROO,
289 192418 Embedded S/W Engineer 1Littleton/Waterton, CO$75 to $100.00 DOE4 Months07/06/2021ENGO, S
290 192368 EE Technical Designer 2 2Oklahoma City, OK$DOE6 Months07/02/2021ENGO, S
291 192369 Buyer 1Madison, WIUp to $35.00 DOE6 mos07/02/2021PROO,
292 192370 Electrical Assembler 1Philadelphia, PAUp to $24.00 DOE5 months07/02/2021MANO,
293 192371 Cyber Security Engineer 1Camden, NJUp to $60.65 DOE12 months07/02/2021ITO, S
294 192372 Building Maintenance Technician 1Fremont, CAUp to $30.00 DOE11 months07/02/2021MANO,
295 192378 Packaging Technician 2 1Mount Prospect, ILUp to $16.50 DOE12 mos07/02/2021GENO,
296 192379 Loader 1Little Rock, AR$DOE3 Months07/02/2021GENO,
297 192381 Software Engineer 3 1St. Charles, MO$DOE6 Months07/02/2021ENGO, S
298 192383 Cybersecurity Operations Manager 1Santa Monica, CA$DOEPERM07/02/2021ITO, S
299 192384 Cyber Defense Analyst / Engineer 1Santa Monica, CA$DOECTH07/02/2021ITO, S
300 192385 Sr Recruiter III 1Huntsville, AL$DOE6 months07/02/2021PROO,
301 192386 Systems Engineer IV 1Canoga Park, CA$DOE7 months07/02/2021ENGO, S
302 192324 Structural & Payload Design Engineer 3 5North Charleston, SC$DOE6 months07/01/2021ENGO,
303 192325 Buyer / Scheduler 1Madison, WIUp to $26.26 DOE6 months07/01/2021PROO,
304 192326 Product Review Engineer 4 6San Antonio, TX$DOE6 months07/01/2021ENGO, OM
305 192327 Technical Writer 1Santa Clara, CAUp to $33.76 DOE6 mos07/01/2021PROO,
306 192328 Scientist I - Chemistry 1South San Francisco, CAUp to $33.00 DOE6 mos07/01/2021SCIO,
307 192329 Expeditor 1Garden Grove, CA$14 to $20.00 DOE6+ months07/01/2021GENO,
308 192331 Aircraft Electrician 2 1Saint Augustine, FL$17.36 to $21.71 DOE2 years07/01/2021MANO,
309 192333 Systems Engineer III 1Orlando, FLUp to $90.00 DOE9 months07/01/2021ENGO, OM
310 192338 Material Distribution Handling Support 3 1El Segundo, CAUp to $22.90 DOE12 months07/01/2021GENO,
311 192340 Test Engineer 2 1Ocean Springs, MS$31.17 to $38.96 DOE12 months07/01/2021ENGO, S
312 192341 Scientist I 1Hunt Valley, MD$DOE12 mos07/01/2021SCIHSM,
313 192342 Engineer Network 3 1Panama City, FL$37.54 to $46.92 DOE12 months07/01/2021ENGO, S
314 192348 Customer Care Representative II 1Hillsboro, OR$DOE12 mos07/01/2021ADMO,
315 192357 Aircraft Painter 2 3Palmdale, CA$15.94 to $19.93 DOE3 months07/01/2021MANO,
316 192358 EHS Project Coordinator 1Carlsbad, CAUp to $30.00 DOE5 months07/01/2021SCIO,
317 192362 EHS Project Coordinator 1Carlsbad, CAUp to $22.50 DOE5 Months07/01/2021SCIO,
318 192363 Chemistry Technician 1Sunnyvale, CAUp to $22.55 DOE5 months07/01/2021SCIO,
319 192310 Engrg Design Checker Level 2 1Orlando, FLUp to $53.00 DOE11 Months06/30/2021ENGO, S
320 192317 Customer Service Representative 1Sunnyvale, CAUp to $23.00 DOE5 mos06/30/2021ADMO,
321 192318 Sales Operations Analyst II 1Remote, Up to $50.00 DOE4 mos06/30/2021PROO,
322 192319 Web and Media Programmer Level 1 1Web and Media Programmer Level 1, Up to $35.00 DOE12 Months06/30/2021ADMO,
323 192321 Electronics Technician 1Marion, MA$DOE12 months06/30/2021MANO, S
324 192322 Scientist 1 - Analytical and Formulation Sciences 1Cincinnati, OH$DOE12 Months06/30/2021SCIO,
325 192323 Scientist II 1Fremont, Ca$33 to $35.00 DOE 06/30/2021SCIO,
326 192272 Customer Service Rep II 1Garden Grove, CA$DOE3 months06/29/2021PROO,
327 192273 Customer Service Representative III 1Garden Grove, CA$20 to $26.00 DOE5-6 months06/29/2021ADMO,
328 192274 Electrical Engineer 1Northampton, MAUp to $60.00 DOE6 months06/29/2021ENGO,
329 192277 Receiving Inspector 1 2Chandler, AZ$14.11 to $17.64 DOE12 months06/29/2021MANO,
330 192278 QC Lab Technician 1Fair Lawn, NJUp to $25.00 DOE3 Months06/29/2021SCIO,
331 192281 Lead Quality Engineer 1Los Angeles, CA$DOE6+ months, CTH06/29/2021ENGO,
332 192282 Quality Control Technician 1North Las Vegas, NV$DOE6+ months06/29/2021MANO,
333 192283 QC Lab Technician 1Fair Lawn, NJ$DOE 06/29/2021SCIO,
334 192284 Systems Engineer III 1Grand Prairie, TXUp to $90.00 DOE9 months06/29/2021ENGO, S
335 192285 Guidance and Navigation Engineer III 1Grand Prairie, TXUp to $90.00 DOE9 months06/29/2021ENGO, S
336 192286 Systems Engineer III 1Grand Prairie, TXUp to $90.00 DOE9 months06/29/2021ENGO, S
337 192287 Systems Engineer V 1Grand Prairie, TXUp to $100.00 DOE9 months06/29/2021ENGO, S
338 192289 Systems Engineer II 1Grand Prairie, TXUp to $75.00 DOE9 months06/29/2021ENGO, S
339 192290 Material Handler I 1Grand Island, NYUp to $15.50 DOE12 mos06/29/2021GENO,
340 192291 Systems Engineer III 1Grand Prairie, TXUp to $90.00 DOE9 months06/29/2021ENGO, S
341 192292 Material Handler I 1Grand Island, NYUp to $15.50 DOE12 mos06/29/2021GENO,
342 192293 Systems Engineer Level II 1GRAND PRAIRIE, TXUp to $75.00 DOE9 Months06/29/2021ENGO, S
343 192294 Systems Engineer II 1Grand Prairie, TXUp to $75.00 DOE9 months06/29/2021ITO, S
344 192295 Systems Engineer Level 2 1GRAND PRAIRIE, TXUp to $75.00 DOE9 Months06/29/2021ENGO, S
345 192296 Raw Materials Supply Planner 1Waltham, MA - REMOTEUp to $50.00 DOE8 MOS06/29/2021PROO,
346 192300 Systems Engineer IV 1Orlando, FLUp to $85.00 DOE9 months06/29/2021ITO, S
347 192304 Programmer Analyst 4 1Hazelwood, MO$DOE12 Months06/29/2021ITO,
348 192307 Buyer 1Bristol, PA$27 to $32.00 DOE9 Months06/29/2021PROO, OM
349 192243 Systems Engineer III 1Grand Prairie, TXUp to $80.00 DOE9 months06/28/2021ITO, S
350 192244 CNC Machinist 1Bristol, PA$22 to $35.00 DOE5 months06/28/2021MANO,
351 192246 Supplier Quality Engineer 1Tewksbury, MAUp to $35.00 DOE6 mos06/28/2021ENGO,
352 192249 Tool & Fixture Specialist B 25North Charleston, SC$DOE12 Months06/28/2021GENHSM,
353 192250 Program Planning Scheduling Analyst 3 1Chandler, AZUp to $66.91 DOE24 months06/28/2021PROO,
354 192251 Graphic Designer 1Remote, IL$33.59 to $57.03 DOE6 months06/28/2021ITO,
355 192253 Electronics Technician III 1Orlando, FLUp to $35.00 DOE12 months06/28/2021MANO, I, OM
356 192254 Scientist II 1Fremont, CAUp to $35.00 DOE12 mos06/28/2021SCIO,
357 192255 Manufacturing Planner 3 8San Antonio, TX$DOE6 Months06/28/2021ENGHSM,
358 192257 Material Planner 2 2Beltsville, MD$19.68 to $29.91 DOE6 months06/28/2021PROO,
359 192258 Configuration Analyst 3 1Dulles, VA$84.59 to $105.74 DOE6 months06/28/2021ITO, TS
360 192259 RF Design Engineer 5 1San Diego, CA$60 to $90.00 DOE6 Months06/28/2021ENGO,
361 192260 Production Test Technician 2 4Dulles, VA$19.29 to $24.12 DOE6 months06/28/2021MANO,
362 192262 Business Analyst 1Remote, CA$DOE6 months06/28/2021PROO,
363 192265 Product Applications Specialist 1South San Francisci, CA$75 to $100.00 DOE12 months06/28/2021ITO,
364 192266 Depot Service Technician 1Newington, NHUp to $25.00 DOE12 Months06/28/2021MANO,
365 192269 Inspector 1Bristol, PA$17.6 to $22.39 DOE1 Month06/28/2021MANO,
366 192220 Product Repair/Mod Tech C 2Wichita, KS$DOE12 months06/25/2021MANO, S
367 192221 Assembler II 1Franklin, MA$DOE12 mos06/25/2021GENO,
368 192225 Recruiter Specialist 2 1Mesa, AZ$DOE4 Month06/25/2021PROO,
369 192226 Quality Technician 1Cincinnatti, OH$25 to $27.00 DOE5 months06/25/2021MANO,
370 192227 Material Planner 1Philadelphia, PAUp to $26.00 DOE5 months06/25/2021PROO,
371 192228 Aircraft Mechanic II 30San Antonio, TX$DOE12 Months06/25/2021MANO,
372 192230 Production Planning and Scheduler 3 2Redondo Beach, CA$22.9 to $28.62 DOE12 months06/25/2021PROO,
373 192232 Customer Service Representative 1Chelmsford, MAUp to $25.00 DOE3 mos06/25/2021ADMO,
374 192233 Designer III 1Huntington Beach, CAUp to $53.04 DOE5 months06/25/2021ENGO,
375 192234 Recruiter II 1New Brighton, MN$30 to $35.00 DOE2-3 months06/25/2021PROO,
376 192201 Embedded S/W Engineer III 1Orlando, FLUp to $80.00 DOE12 months06/24/2021ITO, OM
377 192202 Senior Packaging Engineer 1Rochester, NYUp to $93.77 DOE12 mos06/24/2021ENGO,
378 192204 Manufacturing Planning Coordinator 1Detroit, MIUp to $28.00 DOE6 mos06/24/2021MANO,
379 192206 Software Engineer 1Sylmar, CAUp to $75.00 DOE11 months06/24/2021ITO, OM
380 192208 Structural Analysis Engineer 1Fort Worth, TX$DOE11 months06/24/2021ENGHSM, OM,S
381 192209 Contract Management Specialist 2 1Seattle, WA$DOE7 Months06/24/2021PROO,
382 192210 Engineer Digital 3 1Linthicum, MD$89.26 to $111.58 DOE12 months06/24/2021ENGO,
383 192211 Aircraft Electrician 3 5Moss Point, MS$26.24 to $27.16 DOE12 months06/24/2021MANO,
384 192212 Aircraft Structures Mechanic 3 3Moss Point, MS$26.24 to $28.99 DOE12 months06/24/2021MANO,
385 192214 Aircraft Structures Mechanic 3 1Moss Point, MS$26.24 to $28.99 DOE12 months06/24/2021MANO,
386 192215 Training and Development Analyst 2Greenville, SC$30 to $35.00 DOE12 months06/24/2021ADMO,
387 192217 Industrial Tooling/NDT Technician 1El Segundo, CA$DOE4 Months06/24/2021MANO,
388 192183 Validation Engineer 1Rochester, NYUp to $65.00 DOE12 mos06/23/2021ENGHSM,
389 192187 Cable Assembler 1Clearwater, FL$16 to $23.00 DOE12 Months06/23/2021MANO,
390 192190 Engineer Software 2 1Dulles, VA$54 to $67.50 DOE6 months06/23/2021ITO,
391 192193 Associate Manufacturing Technician 1Pleasanton, CAUp to $20.00 DOE 06/23/2021MANO,
392 192195 Project and Component Engineer 2Canoga Park, CA$DOE6 months06/23/2021ENGO, S
393 192196 Product Repair/Mod Technician C 1Mountain Home AFB, ID.$DOE6 Months06/23/2021MANO, S
394 192198 Support Planning & Management Specialist 3 2Hazelwood, MO$DOE12 Months06/23/2021PROO, S
395 192200 Lay Up Press Operator 2Marysville, WAUp to $15.50 DOE5-6 weeks06/23/2021MANO,
396 192145 Customer Service Representative II 1Tewksbury, MA$DOE5 mos06/22/2021ADMO,
397 192147 Manufacturing Technician I 1Tewksbury, MAUp to $18.00 DOE12 mos06/22/2021MANO,
398 192148 Maintenance Electrician 1 1Commerce, CA$15.33 to $19.16 DOE12 months06/22/2021MANO,
399 192154 Software Validation Engineer 1Tewksbury, MAUp to $55.00 DOE6 Months06/22/2021ENGO,
400 192156 Planner 1San Jose, CA$DOE6 months06/22/2021PROO,
401 192159 Electrical Manufacturing Planner 4 8Mesa, AZ$DOE10 Months06/22/2021ENGO,
402 192160 Manufacturing Engineer II 1Ocala, FLUp to $50.00 DOE5 months06/22/2021ENGO,
403 192162 Inspector 1Clearwater, FL$19 to $25.00 DOE12 Months06/22/2021MANO,
404 192163 Tool Coordinator 2 1Tinker AFB, OK$DOE6 Months06/22/2021MANO, S
405 192165 Product Repair/Mod Technician C 1Tinker AFB, OK$DOE6 Months06/22/2021MANO, S
406 192166 Inspector 1Clearwater, FL$25 to $30.00 DOE12 Months06/22/2021MANO,
407 192168 Manufacturing Engineer Lead 1Goleta, CAUp to $72.00 DOE7 months06/22/2021ENGO, S
408 192169 Systems Engineer 1Wright Patterson AFB, OHUp to $40.00 DOE6 Months06/22/2021ITO, OM
409 192170 Quality Manager 1Goleta. CA, Up to $72.00 DOE6 months06/22/2021PROO, S
410 192173 Global Trade Compliance Analyst 1Arlington, VAUp to $40.00 DOE12 months06/22/2021PROO,
411 192174 Electrical Engineer 1Marion, MA$55 to $75.00 DOE14 Months06/22/2021ENGO, S
412 192175 Operations Manager 1Goleta, CAUp to $65.00 DOE6 months06/22/2021PROO, S
413 192178 Scientist I 1St. Louis, MOUp to $22.00 DOE18 months06/22/2021SCIO,
414 192179 Warehouse Associate 1Chicago, IL$DOE3 Months06/22/2021GENO,
415 192180 Technical Support Representative 1Los Angeles, CA$17 to $25.00 DOE12 Months +06/22/2021ITO,
416 192181 Linux Systems Engineer 1Los Angeles, CA$45 to $50.00 DOE4 Months06/22/2021ITO,
417 192106 Manufacturing Associate III 1Cambridge, MA$DOE5 mos06/21/2021MANO,
418 192107 Recruiting Coordinator 1Dallas, TX$18 to $21.00 DOE3 months,CTH06/21/2021ADMO,
419 192108 General Inspector 1Archbald, PAUp to $25.00 DOE9 months06/21/2021MANO,
420 192110 Welder 1Broken Arrow, OKUp to $23.00 DOE3 months06/21/2021MANO, S
421 192113 Configuration Controller 2 2Redondo Beach, CA$23.51 to $26.91 DOE6 months06/21/2021ITO,
422 192114 QC Technician 1Middletown, VAUp to $17.00 DOE12 Months06/21/2021MANO,
423 192115 Dispatcher 2Mesa, AZ$DOE12 Months06/21/2021PROO,
424 192116 Wire Harness Assembler II 1Broken Arrow, OKUp to $18.00 DOE8 months06/21/2021MANO, S
425 192117 Dispatcher 2Mesa, AZ$DOE12 Months06/21/2021PROO,
426 192119 Packaging Technician 1Mount Prospect, ILUp to $16.50 DOE12 mos06/21/2021GENO,
427 192126 Engineer Digital 3 1Manhattan Beach, CA$93.51 to $116.89 DOE12 months06/21/2021ENGO,
428 192129 HR Generalist 1Eugene, ORUp to $30.98 DOE12 Months06/21/2021PROO,
429 192134 Manufacturing Planning Coordinator 1Detroit, MIUp to $28.00 DOE6 Months06/21/2021MANO,
430 192138 Lab Technician 1Santa Clara, CAUp to $20.26 DOE12 Months06/21/2021MANO,
431 192073 Electrical Design and Analysis Engineer 5 3El Segundo, CA$DOE12 months06/18/2021ENGO,
432 192076 Structural & Payload Design Engineer 2 3Ridley Park, PA$DOE6 months06/18/2021ENGO,
433 192077 Product Repair/Mod Tech C 2Virginia Beach, VA$DOE12 months06/18/2021MANO, S
434 192078 Material Handler I 1Grand Island, NYUp to $18.98 DOE12 mos06/18/2021GENO,
435 192080 Scientist III, Cell Biology 1Carlsbad, CAUp to $39.00 DOE6 mos06/18/2021SCIO,
436 192083 Electrical Engineer 1Marion, MA$DOE15 months06/18/2021ENGO, I
437 192085 MP&P Technical Analyst 3 4Kent, WA$DOE12 Months06/18/2021ENGO, TS
438 192087 Organic Chemistry Contractor 1Pleasanton, CAUp to $24.00 DOE12 mos06/18/2021SCIO,
439 192091 Shipper 1Shoreview, MN$DOE12 months06/18/2021GENO,
440 192094 Accounts Receivable Specialist 1Pittsburgh, PAUp to $23.00 DOE6 mos06/18/2021ADMO,
441 192096 Aircraft Structures Mechanic 1 1Saint Augustine, FLUp to $18.14 DOE12 months06/18/2021MANO,
442 192098 Product Repair/Mod Tech C 1Tinker AFB, OK$DOE12 Months06/18/2021MANO, S
443 192099 Sr Production Planner 1Anaheim, CA$36 to $40.00 DOE6 months06/18/2021PROO,
444 192100 Wire Tech C 1Tulsa, OK$14 to $16.00 DOE12 months06/18/2021MANO,
445 192101 Associate Manufacturing Technician 1Pleasanton, CAUp to $20.00 DOE10 Months06/18/2021MANO,
446 192102 Tool Coordinator 3 1Nellis AFB, NV$DOE12 Months06/18/2021GENO, S
447 192044 Assembler D 1Anaheim, CAUp to $24.00 DOE12 months06/17/2021MANO,
448 192045 Assembler C 1Anaheim, CAUp to $22.50 DOE12 months06/17/2021MANO,
449 192046 E/M Assembler C 1Anaheim, CAUp to $17.50 DOE12 months06/17/2021MANO,
450 192047 Snr Data Engineer 1Carlsbad, CA - REMOTEUp to $82.52 DOE 06/17/2021ENGO,
451 192051 Production Planner I 1Archbald, PAUp to $28.00 DOE6 months06/17/2021PROO,
452 192052 Scientist III 1West Hills, CA$DOE12 mos06/17/2021SCIO,
453 192054 Human Resource Specialist 1Pittsburgh, PAUp to $17.00 DOE12 mos06/17/2021ADMO,
454 192055 Welder 1Goleta, CA$22 to $25.00 DOE12 months06/17/2021MANO,
455 192056 Mechanical Inspector I 1Menlo Park, CAUp to $35.00 DOE12 Months06/17/2021MANO,
456 192059 Assembler 3Orlando, FL$15 to $18.00 DOE12 Months06/17/2021MANO,
457 192060 HR Manager 1Grand Island, NYUp to $45.00 DOE4 MOS06/17/2021PROO,
458 192061 Site Human Resources Manager 1Lexington, MAUp to $45.00 DOE3 mos06/17/2021PROO,
459 192062 Incoming Raw Material Inspector 1Frederick, MDUp to $20.00 DOE12 mos06/17/2021MANO,
460 192065 Software Engineer 1King of Prussia, PA$DOE12 months06/17/2021ITO, S
461 192067 Sheet Metal Mechanic 1Greenville, SC$27 to $29.00 DOE12 Months06/17/2021MANO,
462 192069 Software Engineer 1King of Prussia, PA$44 to $74.00 DOE12 Months06/17/2021ITO, S
463 192071 Batch Record Reviewer 1Frederick, MD$DOE12 mos06/17/2021MANO,
464 191994 Buyer 1Bridgewater, NJ - REMOTEUp to $30.00 DOE6 Months06/16/2021PROO,
465 191995 Assembler 1 6Wall Township, NJUp to $13.00 DOE4 months06/16/2021MANO,
466 191996 Recruiting Assistant 1Torrance, CAUp to $30.00 DOE12 months06/16/2021PROO,
467 191998 Configuration Control Admin 1Tulsa, OKUp to $20.00 DOE4 months06/16/2021ADMO,
468 192002 Quality Review 1Alachua, FLUp to $60.02 DOE5 mos06/16/2021ENGO,
469 192003 Sr Software Engineer 1Arlington, TX$40 to $60.00 DOE12 months06/16/2021ITO, OM
470 192007 QC Scientist I 1Bend, ORUp to $23.00 DOE6 mos06/16/2021SCIO,
471 192008 Manufacturing Operator 1Petaluma, CAUp to $20.50 DOE12 mos06/16/2021MANO,
472 192009 Test Technician 1Anaheim, CAUp to $35.00 DOE12 months06/16/2021ENGO,
473 192010 Inspector 1Anaheim, CAUp to $28.00 DOE12 months06/16/2021MANO,
474 192011 Inprocess Inspector 1Anaheim, CA$22 to $23.00 DOE12 months06/16/2021MANO,
475 192012 Chemical Room Operator 1Scotts Valley, CAUp to $24.00 DOE12 mos06/16/2021GENO,
476 192013 Test Technician B 1Anaheim, CAUp to $25.00 DOE12 Months06/16/2021MANO,
477 192014 Media Project Specialist 5 1Seattle, WA$DOE6.5 Months06/16/2021PROO,
478 192015 Glassblower 1Scotts Valley, CAUp to $30.00 DOE12 months06/16/2021MANO,
479 192016 Inprocess Inspector 1Anaheim, CA$22 to $23.00 DOE12 months06/16/2021MANO,
480 192018 Regulatory Affairs Specialist 1Fair Lawn, NJUp to $42.00 DOE12 mos06/16/2021PROO,
481 192020 Scientist I 1Carlsbad, CAUp to $21.00 DOE12 mos06/16/2021SCIO,
482 192025 Structural Analysis Engineer 4 1Hazelwood, MO$DOE6 Months06/16/2021ENGO, OM
483 192026 Structural & Payload Design Engineer 4 1Hazelwood, MO$DOE6 Months06/16/2021ENGO, OM
484 192027 Structural Analysis Engineer 4 1Berkeley, MO$DOE6 Months06/16/2021ENGO, OM
485 192028 Estimating & Pricing Spec 3 4Hazelwood, MO$DOE6 Months06/16/2021PROO,
486 192029 Scientist 3 1Berkeley, MO$DOE12 Months06/16/2021ENGO, OM
487 192030 Manufacturing Technician I 1Grand Island, NYUp to $16.50 DOE3 months06/16/2021MANO,
488 192032 Scientist 4 1Berkeley, MO$DOE12 Months06/16/2021ENGO, OM
489 192033 Scrum Master 1Eugene, ORUp to $42.00 DOE17 months06/16/2021ITO,
490 192034 Scientist 5 1Berkeley, MO$DOE12 Months06/16/2021ENGO, OM
491 192037 Digital Signal Processing (DSP) Software Engineer 1Salt Lake City, UT$70 to $100.00 DOE12 Months06/16/2021ENGO, OM, S
492 192038 Fabrication Associate 1Ayer, MA$19 to $29.00 DOE6 months06/16/2021MANO,
493 191935 Associate Chemist 1Sunnyvale, CAUp to $29.74 DOE 06/15/2021SCIO,
494 191937 Structural & Payload Design Engineer 3 1Ridley Park, PA$DOE6 months06/15/2021ENGHSM, OM
495 191941 Training Device Technician 2 1Hazelwood, MO$DOE6 months06/15/2021ITO,
496 191942 Scheduler 1El Segundo, CA$40 to $43.00 DOE6+ months06/15/2021PROO,
497 191944 Mechanical Assembler 1El Segundo, CA$23 to $24.00 DOE6+ months/CTH06/15/2021MANO,
498 191946 Customer Support Rep III 1Carson, CA$DOE3 months06/15/2021PROO,
499 191947 Quality Inspector 4Garden Grove, CA$15 to $25.00 DOE1-2 months06/15/2021MANO,
500 191948 Computer Systems Architect 2 1Oklahoma City, OK$44.13 to $55.17 DOE6 months06/15/2021ITO, S
501 191960 Assembler 15Owego, NY$DOE11 months06/15/2021MANO,
502 191966 Fabrication Specialist A 10Salt Lake City, UT$DOE6 Months06/15/2021GENHSM,
503 191968 Desktop Support Technician 1Londonderry, NHUp to $26.00 DOE12 months06/15/2021ITO,
504 191969 Associate Folder Gluer Operator 1Bohemia, NYUp to $20.00 DOE12 mos06/15/2021MANO,
505 191970 Associate Folder Gluer Operator 1Bohemia, NYUp to $20.00 DOE12 mos06/15/2021MANO,
506 191971 Associate Folder Gluer Operator 1Bohemia, NYUp to $20.00 DOE12 mos06/15/2021MANO,
507 191972 Manufacturing Operator 1Bohemia, NYUp to $20.00 DOE11 months06/15/2021MANO,
508 191975 Flight Readiness Technician C 35Victorville, CA$DOE6 Months06/15/2021MANO,
509 191976 Equipment Maintenance Tech 1Tempe, AZ$18 to $22.00 DOE12 months06/15/2021MANO, OM
510 191977 Structural & Payload Design Engineer 3 3Houston, TX$DOE6 Months06/15/2021ENGHSM,
511 191978 Test Technician 1Scotts Valley, CAUp to $31.00 DOE12 Months06/15/2021MANO,
512 191979 Equipment Maintenance Tech 1Tempe, AZ$18 to $22.00 DOE12 months06/15/2021MANO, OM
513 191980 Test Technician 1Scotts Valley, CAUp to $31.00 DOE12 months06/15/2021MANO,
514 191984 Test Technician 1Scotts Valley, CAUp to $29.00 DOE12 months06/15/2021SCIO,
515 191988 P-8 Training Systems Non Acoustic/EWO Subject Matter Expert 1Hazelwood, MO$DOE6 Months06/15/2021ENGO, S
516 191990 Systems Engineer 3 1Hazelwood, MO$DOE6 Months06/15/2021ENGO, S
517 191910 Integrated Planning & Scheduling Specialist 5 6Hazelwood, MO$DOE12 months06/14/2021PROO, S
518 191911 QA Contractor 1Bridgewater, NJUp to $24.00 DOE12 MOS06/14/2021PROO,
519 191915 Assembler 15Ontario, CAUp to $17.00 DOE5-6 months06/14/2021GENO,
520 191916 Warehouse Shipper 1Milwaukee, WI$DOE12 months06/14/2021MANO,
521 191917 Experimental Machinist 2 1Bethpage, NY$20.35 to $24.28 DOE12 months06/14/2021MANO,
522 191918 Assembler - NY 1Skaneateles, NY$DOE12 months06/14/2021MANO,
523 191921 Payroll Analyst - LOA Team 1Pittsburgh, PAUp to $26.00 DOE7 mos06/14/2021PROO,
524 191923 Facilities Coordinator II 1San Jose, CAUp to $33.76 DOE12 months06/14/2021PROO,
525 191925 Merchandiser 3Bentonville, AR$14 to $16.75 DOE3 Months06/14/2021GENO,
526 191885 Client Services Administrator 1Swedesboro, NJUp to $19.50 DOE 06/11/2021ADMO,
527 191891 Scientist I 1Cincinnati, OH$22 to $25.00 DOE12 months06/11/2021SCIO,
528 191903 Painter II 1Chelmsford, MAUp to $30.00 DOE6 months06/11/2021MANO, OM
529 191904 Assembler II 1Chelmsford, MAUp to $28.00 DOE6 months06/11/2021MANO, OM
530 191905 Manufacturing Operator II 1Carlsbad, CAUp to $18.00 DOE11 months06/11/2021MANO,
531 191907 Lab Technician 1Carlsbad, CAUp to $20.00 DOE12 months06/11/2021SCIO,
532 191860 HR Generalist 1Batesville, IN$25 to $30.00 DOE6 months06/10/2021PROO,
533 191862 HR Generalist 1Fairport, NYUp to $45.00 DOE6 mos06/10/2021PROO,
534 191863 Sr Software Engineer 1Wilmington, MA$70 to $80.00 DOE6 months06/10/2021ITO, OM
535 191865 Software Engineer Lead 1Wilmington, MAUp to $90.00 DOE6 months06/10/2021ITO, OM
536 191868 Credit/Collections Clerk 1El Segundo, CAUp to $20.00 DOE3-4 months06/10/2021ADMO,
537 191869 Software Engineer 2Fort Worth, TX$DOE12 months06/10/2021ITO, S
538 191870 Software Engineer 2Fort Worth, TX$DOE12 months06/10/2021ITO, S
539 191872 Sr Manufacturing Operator 1Princeton, NJUp to $30.00 DOE6 mos06/10/2021MANO,
540 191873 Software Engineer II 1Grand Prairie, TXUp to $85.00 DOE12 months06/10/2021ITO, OM
541 191875 Quality Engineer - Metrology 1Tupelo, MS$DOE 06/10/2021ENGO,
542 191880 Product Data Management Engineer 3 1Hazelwood, MO$DOE9 Months06/10/2021ENGO, OM
543 191819 Electronic Technician 1Little Rock, AR$21 to $25.00 DOE3-4 months06/09/2021MANO,
544 191820 Recruiter 1Nazareth, PAUp to $25.00 DOE12 mos06/09/2021PROO,
545 191828 Assembler 2Clearwater, FL$DOE12 months06/09/2021MANO,
546 191833 Line Maintenance Technician 1 2Warner Robins, GA$11.62 to $14.53 DOE1 month06/09/2021MANO,
547 191836 Market Development Manager 1Carlsbad, CAUp to $40.00 DOE12 mos06/09/2021PROO,
548 191847 Accounting Assistant 3 1Bloomington, MN$20.5 to $25.62 DOE6 months06/09/2021ADMO,
549 191853 Technician 1Colorado Springs, COUp to $19.25 DOE12 months06/09/2021GENO,
550 191804 Manufacturing Tech II 1Grand Island, NYUp to $20.70 DOE 06/08/2021MANO,
551 191805 Sr Design Specialist 1San Leandro, CA$50 to $65.00 DOE12 months06/08/2021ENGO,
552 191807 Manufacturing Technician II 1Grand Island, NYUp to $20.70 DOE6 months06/08/2021MANO,
553 191810 Manufacturing Technician II 1Grand Island, NYUp to $20.70 DOE6 months06/08/2021MANO,
554 191811 Mechanical Engineer 1Fremont, CAUp to $22.50 DOE12 mos06/08/2021ENGO,
555 191816 Sr Embedded Software Engineer 1Salt Lake City, UT$60 to $110.00 DOE12 months06/08/2021ITO, S
556 191762 Tool Engineer 3 6North Charleston, SC$DOE12 months06/07/2021ENGO,
557 191764 Data Analytics and Development Technician 1Fort Worth, TX$DOE14 months06/07/2021ITO,
558 191765 Systems Engineer 4 1Oklahoma City, OK$DOE9 Months06/07/2021ENGO, OM
559 191767 Technician II 7College Park, GA$15 to $18.00 DOE6 months06/07/2021MANO,
560 191768 Electronics Technician III 1Orlando, FLUp to $45.00 DOE12 months06/07/2021MANO, S
561 191769 Web Software Developer 2 2Redondo Beach, CA$53 to $66.25 DOE12 months06/07/2021ITO,
562 191775 Composite Technician 15Mesa, AZ$DOE10 Months06/07/2021MANO,
563 191780 Merchandiser 1Outer Banks market of NC, $14 to $16.00 DOE4 Months06/07/2021GENO,
564 191783 Software Engineer 3 2Oklahoma City, OK$DOE6 Months06/07/2021ITO, S
565 191786 QC Scientist I 1Fremont, CAUp to $30.00 DOE6 months06/07/2021SCIO,
566 191791 Program Manager 1South San Francisco, CAUp to $60.00 DOE3 months06/07/2021ADMO,
567 191792 Scientist I 1Pleasanton, CAUp to $24.00 DOE11 months06/07/2021SCIO,
568 191717 Manufacturing Technician I 1Grand Island, NYUp to $16.50 DOE3 mos06/04/2021MANO,
569 191719 Electrical Design and Analysis Engineer 4 5Hazewood, MO$DOE12 months06/04/2021ENGO,
570 191721 Electrical Design and Analysis Engineer 4 19Hazelwood, MO$DOE12 months06/04/2021ENGO,
571 191722 Sr Executive Assistant 1Redmond, WA$DOE12 months06/04/2021ADMHSM,
572 191725 Test Engineer III 1Grand Prairie, TXUp to $90.00 DOE9 months06/04/2021ENGO, OM
573 191726 Systems/ Test Engineer IV 1Orlando, FL$DOE9 months06/04/2021ENGHSM, OM
574 191730 Systems Architect 1Littleton, CO$DOE5 months06/04/2021ITO, OM
575 191731 Assembler 2 6Northridge, CA$14.67 to $21.42 DOE6 months06/04/2021MANO,
576 191732 Quality Production Specialist 3 9North Charleston, SC$DOE6 Months06/04/2021MANHSM,
577 191741 Manufacturing Technician 1Pleasanton, CaUp to $20.00 DOE 06/04/2021MANO,
578 191742 Manufacturing Technician 1Pleasanton, CAUp to $22.00 DOE 06/04/2021MANO,
579 191743 Manufacturing Technician II 1Grand Island, NYUp to $18.00 DOE3 mos06/04/2021MANO,
580 191744 Administrative 1Bridgewater, NJUp to $18.45 DOE 06/04/2021GENO,
581 191752 Design Engineer 1Torrance, ,CA$30 to $45.00 DOE6 months06/04/2021ENGO,
582 191753 Material Planner 1Torrance, CA$29 to $39.00 DOE12 months06/04/2021MANO,
583 191754 Sr Accounting Specialist 1Rockwall, TX$38 to $40.00 DOE4 months06/04/2021PROO,
584 191756 Security Escort 1King of Prussia, PA$DOE6 months06/04/2021PROO, S
585 191669 Product Repair/Mod Tech C 2Wichita, KS$DOE12 months06/03/2021MANO, S
586 191672 Software Engineer 1Arlington, TXUp to $90.00 DOE12 months06/03/2021ITO, S
587 191677 Assembler II 2Archbald, PAUp to $26.00 DOE9 months06/03/2021MANO,
588 191682 Software Asset Analyst 1San Diego, CA$DOE6 months06/03/2021ITO,
589 191686 QA Technician 1Grand Prairie, TX$15 to $25.00 DOE3 months06/03/2021MANO,
590 191695 Recruiter 1Torrance, CAUp to $45.00 DOE12 months06/03/2021PROO,
591 191696 Software Engineer 1 6Hazelwood, MO$DOE6 Months06/03/2021ITO, S
592 191699 Software Engineer 2 3Hazelwood, MO$DOE6 Months06/03/2021ITO, S
593 191700 Software Engineer 3 3Hazelwood, MO$DOE6 Months06/03/2021ITO, S
594 191702 Systems Engineer 3 1Hazelwood, MO$DOE12 Months06/03/2021ENGO,
595 191704 Simulator Flight Instructor 10Hazelwood, MO$DOE6 Months06/03/2021ENGO, OM
596 191708 Manufacturing Technician I 1Grand Island, NYUp to $16.50 DOE3 mos06/03/2021MANO,
597 191709 Manufacturing Technician I 1Grand Island, NYUp to $16.50 DOE3 mos06/03/2021MANO,
598 191710 Lab Technician 1Fremont, CAUp to $20.00 DOE7 months06/03/2021SCIO,
599 191634 Scientist I, Formulation 1Fremont, CAUp to $28.50 DOE7 mos06/02/2021SCIO,
600 191636 Structural Analysis Engineer 2 2Ridley Park, PA$DOE12 months06/02/2021ENGO, OM
601 191637 Systems Engineer 1Arlington, TXUp to $60.00 DOE6 months06/02/2021ENGO, S
602 191638 Aircraft Structural Assembler-Vertical Lift 2Mesa, AZ$DOE12 months06/02/2021MANO,
603 191646 Manufacturing Technician II 1Grand Island, NY$DOE3 mos06/02/2021MANO,
604 191650 Assembler 1Alpharetta, GAUp to $23.00 DOE5 months06/02/2021MANO,
605 191659 Test & Evaluation Technical Services Specialist 1Tukwila, WA$DOE12 Months06/02/2021MANO,
606 191661 Electrical Product Repair/Mod Tech C 2Seymour Johnson AFB, NC$DOE12 Months06/02/2021MANO, S
607 191663 Test & Evaluation Lab Technician 2 4Seattle, WA$DOE12 Months06/02/2021MANHSM,
608 191612 Contracts Administrator Director 1Orlando, FL$DOEDirect06/01/2021PROO,
609 191614 Purchasing Agent-Expeditor 1Pittsburgh, PAUp to $19.00 DOE12 mos06/01/2021ADMO,
610 191616 Manufacturing Technician II, Formulation 1Grand Island, NYUp to $19.00 DOE3 mos06/01/2021MANO,
611 191618 Manufacturing Technician II, Formulation 1Grand Island, NYUp to $19.00 DOE3 mos06/01/2021MANO,
612 191621 Software Engineer III 1Remote, CO$75 to $125.00 DOE5 months06/01/2021ITO,
613 191623 Flight Readiness Technician B/INSPECTION 30North Charleston, SC$DOE6 Months06/01/2021MANO,
614 191625 Accounting Analyst 1Santa Rosa, CA$28 to $34.00 DOE12 months06/01/2021PROO,
615 191626 Market Development Manager 1Remote, CAUp to $40.00 DOE11 months06/01/2021PROO,
616 191627 Systems Engineer 4 1Berkeley, MO$DOE12 Months06/01/2021ENGO, S
617 191630 Systems Engineer 3 1Hazelwood, MO$DOE12 Months06/01/2021ENGO, OM
618 191581 Senior Operator, Manufacturing 1West Hills, CAUp to $18.00 DOE12 mos05/28/2021MANO,
619 191587 Sr Manufacturing Operator, Cell Therapy 1Princeton, NJUp to $30.00 DOE6 mos05/28/2021SCIO,
620 191590 Product Manager 1Burbank, CA$DOE6 Months05/28/2021PROO,
621 191591 Sr Systems Analyst 1Burbank, CA$DOE6 Months05/28/2021PROO,
622 191592 Senior Business Analyst 1Burbank, CA$DOE6 Months05/28/2021PROO,
623 191593 Production Planner 1Plainsboro, NJ$DOE6 Months05/28/2021PROO,
624 191595 Software Engineer 1Bothell, WAUp to $70.00 DOE12 mos05/28/2021ENGO,
625 191598 Laboratory Automation Engineer 1Bothell, WAUp to $70.00 DOE12 mos05/28/2021ENGO,
626 191599 Laboratory Automation Engineer 1Bothell, WAUp to $70.00 DOE12 mos05/28/2021ENGO,
627 191604 Product Review Engineer 5 5North Charleston, SC$DOE12 Months05/28/2021ENGO,
628 191564 Associate Manufacturing Technician 1Pleasanton, CAUp to $24.20 DOE12 mos05/27/2021MANO,
629 191565 Information Security Analyst 2 1Remote, OR$DOE12 Months05/27/2021ITO,
630 191569 Manufacturing Technician I 1Rockwood, TNUp to $15.00 DOE12 mos05/27/2021MANO,
631 191576 T-7 Red Hawk Trainer Test Pilot/Subject Matter Expert 2Hazelwood, MO$DOE12 Months05/27/2021ENGO,
632 191524 Embedded S/W Engineer III 1Orlando, FLUp to $90.00 DOE9 months05/26/2021ITO, S
633 191526 Embedded S/W Engineer II 1Orlando, FLUp to $90.00 DOE9 months05/26/2021ITO, S
634 191532 Manufacturing Engineer III 1Tewksbury, MAUp to $50.48 DOE12 mos05/26/2021ENGO,
635 191537 Flight Inspector 1 2Dulles, VA$19.99 to $24.99 DOE12 months05/26/2021MANO,
636 191539 Senior C++ Developer 1Camden, NJUp to $100.00 DOE12 months05/26/2021ITO, S
637 191542 Media Production Analyst 3 1Redondo Beach, CA$52.78 to $65.98 DOE18 months05/26/2021ITO, TS
638 191544 Accountant 2 2Minnetonka, MN$19.74 to $31.49 DOE9 months05/26/2021PROO,
639 191546 Contract Recruiter 1North Las Vegas, NV$35 to $44.00 DOE6+ months05/26/2021PROO,
640 191547 Talent Sourcer 1REMOTE, $30 to $40.00 DOE6+ months05/26/2021PROO,
641 191549 Software Engineer 5 1Germantown, MD$DOE12 Months05/26/2021ITO, OM
642 191551 Manufacturing Operator 1Petaluma, CAUp to $20.50 DOE12 months05/26/2021MANO,
643 191555 Manufacturing Operator 2 1Carlsbad, CAUp to $20.00 DOE6 mos05/26/2021MANO,
644 191557 Manufacturing Operator 2 1Carlsbad, CAUp to $20.00 DOE7 mos05/26/2021MANO,
645 191562 Software Engineering Lead 1Camden, NJUp to $100.00 DOE12 months05/26/2021ITO, S
646 191495 Electrical Technician 1Lexington Park, MD$DOE1005/25/2021MANO,
647 191496 Structural & Payload Design Engineer 3 2Oklahoma City, OK$DOE12 Months05/25/2021ENGHSM, OM
648 191499 Cyber Security Systems Engineer 1Poway, CA$DOE6 Months05/25/2021ITO, OM
649 191505 Senior Operator, Manufacturing 1West Hills, CAUp to $18.00 DOE12 mos05/25/2021MANO,
650 191508 Sr Network Engineer 1Huntsville, AL$DOE3 months05/25/2021ITO, I
651 191510 Procurement Agent 1 3Berkeley, MO$DOE6 Months05/25/2021PROO,
652 191514 Scientist I 1Carlsbad, CAUp to $25.99 DOE7 months05/25/2021SCIO,
653 191516 P-8 Training Systems Acoustic Subject Matter Expert 1Hazelwood, MO$DOE6 Months05/25/2021ENGO, S
654 191517 Master Planner 1Fort Worth, TXUp to $50.00 DOE5 Months05/25/2021PROO, OM, S
655 191519 Systems Engineer 3 1Oklahoma City, OK$DOE6 Months05/25/2021ENGO, OM
656 191466 Systems Engineer Technician 1 1Hazelwood, MO$DOE6 months05/24/2021ENGO, S
657 191478 Sheet Metal Mechanic 8Greenville, SC$DOE12 months05/24/2021MANO,
658 191479 Associate Manufacturing Technician 1Pleasanton, CAUp to $22.00 DOE11 mos05/24/2021MANO,
659 191482 Software Engineer III 2Littleton, COUp to $75.00 DOE12 months05/24/2021ITO, OM
660 191483 Facilities Project Admin 4 1Oklahoma City, OK$DOE12 Months05/24/2021PROO,
661 191487 Manufacturing Engineer 3 10North Charleston, SC$DOE9 Months05/24/2021ENGO,
662 191446 Mechanical Technician 1 1Chandler, AZUp to $35.70 DOE12 months05/21/2021MANHSM,
663 191452 Senior Software Engineer 1Tewksbury, MAUp to $75.02 DOE6 mos05/21/2021ENGO,
664 191455 Structural & Payload Design Engineer 2Oklahoma City, OK$DOE6 Months05/21/2021ENGO, S
665 191457 Structural & Payload Design Engineer 3 2Oklahoma City, OK$DOE6 Months05/21/2021ENGO, S
666 191458 Manufacturing Operator 1Carlsbad, CA$DOE6 months05/21/2021SCIO,
667 191459 Office Assistant 1Alachua, FLUp to $15.50 DOE2 months05/21/2021ADMO,
668 191464 Systems Engineer 3 1Hazelwood, MO$DOE6 Months05/21/2021PROO, S
669 191410 Stock Clerk 1Van Nuys, CA$16 to $18.00 DOE6 months05/20/2021GENO,
670 191414 Product Review Engineer 5 1North Charleston, SC$DOE9 Months05/20/2021ENGO,
671 191415 Engineering Design Checker II 1Orlando, FLUp to $65.00 DOE12 Months05/20/2021ENGO, S, SAP
672 191416 QC Scientist I 1Chelmsford, MA$DOE12 mos05/20/2021SCIO,
673 191418 Warehouse Associate 1Phoenix, AZ$DOE1 months05/20/2021GENO,
674 191419 Product Acceptance Specialist B 15North Charleston, SC$DOE12 Months05/20/2021GENHSM,
675 191424 Logistics Analyst 1Fort Bragg, NC$DOE6 months05/20/2021PROO, TS
676 191425 MP&P Engineer 3 4Kent, WA$DOE12 Months05/20/2021ENGO, TS
677 191428 Regulatory Affairs Specialist 1Fremont, CAUp to $55.00 DOE7 mos05/20/2021PROO,
678 191433 International Customer Service - Account Specialist 1King Of Prussia, $35.7 to $36.56 DOE6 months05/20/2021PROO,
679 191436 Material Planner 1San Diego, CA$31.25 to $33.65 DOE6 months05/20/2021PROO,
680 191384 Senior Staff Scientist, Product 1Bedford, MA$DOE5 mos05/19/2021SCIO,
681 191386 Administrative Assistant 4Cypress, CAUp to $17.00 DOE2 months05/19/2021ADMO,
682 191388 Financial Analyst 1Pittsburgh, PAUp to $20.00 DOE3 mos05/19/2021PROO,
683 191393 Quality Inspector 3 2McClellan, CA$18.22 to $22.78 DOE6 months05/19/2021MANO,
684 191394 Scientist II, Cell Biology 1Eugene, ORUp to $32.00 DOE12 mos05/19/2021SCIO,
685 191397 Manufacturing Operator 2 1Fremont, CAUp to $20.00 DOE12 mos05/19/2021MANO,
686 191398 Clean Room Operator 1Miami, OKUp to $12.50 DOE3 mos05/19/2021GENO,
687 191401 Associate Manufacturing Technician 1Pleasanton, CAUp to $20.00 DOE10 mos05/19/2021MANO,
688 191352 Scientist II (Microbiology) 1Eugene, OR$DOE12 mos05/18/2021SCIO,
689 191354 Scientist III (Molecular Biology) 1Eugene, OR$DOE12 mos05/18/2021SCIO,
690 191355 Electrical Technician III 1Ocala, FLUp to $45.00 DOE12 months05/18/2021MANHSM,
691 191370 Warehouse - Packer 1Dallas, TX$DOE 05/18/2021GENO,
692 191372 Assembler 1Charleston, SC$DOE12 months05/18/2021MANO,
693 191382 Aircraft Mechanic 7Mesa, AZ$DOE12 Months05/18/2021MANO,
694 191323 Software Engineer 1Eugene, ORUp to $60.02 DOE10 mos05/17/2021ITO,
695 191324 Software Tech Lead 1Bothell, WAUp to $63.77 DOE12 mos05/17/2021ITO,
696 191327 QC Technical Writer 1High Point, NCUp to $20.00 DOE7 mos05/17/2021ITO,
697 191328 QC Scientist I 1High Point, NC$DOE7 MOS05/17/2021SCIHSM,
698 191329 QC Scientist I 1High Point, NC$DOE4 mos05/17/2021SCIO,
699 191336 Manufacturing Operator 1West Hills, CAUp to $18.24 DOE12 months05/17/2021MANO,
700 191339 Validation Engineer 1Miami, FLUp to $30.00 DOE7 mos05/17/2021ENGO,
701 191340 Manufacturing Technician 2 2Goleta, CA$28.56 to $39.27 DOE12 months05/17/2021MANO,
702 191341 Scientist I, Manufacturing 1Carlsbad, CA$DOE7 mos05/17/2021SCIO,
703 191345 Experimental Machinist 1El Segundo, CA$32 to $38.00 DOE1 year05/17/2021MANO, OM
704 191348 Manufacturing Technician I 1Tewksbury, MAUp to $18.00 DOE11 mos05/17/2021MANO,
705 191293 POROS Manufacturing Technician I 1Bedford, MAUp to $25.20 DOE3 mos05/14/2021MANO,
706 191304 Flight Inspector 2 1Dulles, VA$35.19 to $43.99 DOE12 months05/14/2021MANO,
707 191306 Sales Operations Specialist 1Durham, NCUp to $18.50 DOE12 mos05/14/2021PROO,
708 191314 QA Specialist 1Remote, CAUp to $25.00 DOE7 months05/14/2021SCIO,
709 191317 General Laborer I 1Santa Maria, CA$DOE5 months05/14/2021MANO,
710 191270 Product Repair/Mod Tech B 1NAS Lemoore, CA$DOE12 months05/13/2021MANO, S
711 191278 Mechanical/Medical Device Engineer 2Irvine, CA$74.1 to $90.84 DOE7 months05/13/2021ENGO,
712 191279 Data Entry Clerk 3Greenville, SC$20 to $25.00 DOE12 months05/13/2021ADMO,
713 191283 Formulation Technician I 1Pleasanton, CAUp to $22.00 DOE12 months05/13/2021SCIO,
714 191287 Loader 1Harrisburg, PA$DOE3 months05/13/2021GENO,
715 191289 Scientist II 1West Hills, CA$DOE7 mos05/13/2021SCIO,
716 191290 Regulatory Affairs Specialist 1Fremont, CAUp to $55.00 DOE7 mos05/13/2021PROO,
717 191228 CNC Operator 2Ontario, CAUp to $20.00 DOE4 months05/12/2021MANO,
718 191232 Administrative Assistant 2Ontario, CAUp to $16.00 DOE4 months05/12/2021ADMO,
719 191242 Industrial Engineer 2 5Everett, WA$DOE2 Months05/12/2021ENGO,
720 191244 Validation Engineer 1Miami, FLUp to $30.00 DOE4 months05/12/2021SCIO,
721 191247 Tool Crib Attendant 1Redmond, WA$DOE6 months05/12/2021GENO,
722 191248 Engineer Mechanical 3 2Elkton, MD$59.51 to $75.39 DOE6 months05/12/2021ENGO,
723 191249 Structural Mechanic 10Milledgeville, GAUp to $30.00 DOE6-8 months05/12/2021MANO,
724 191254 Retail Sales Specialist A 1Seattle, WA$DOE12 Months05/12/2021ADMO,
725 191265 Product Support Technician 1Bristol, PA$12 to $18.00 DOE6 months05/12/2021GENO,
726 191266 Retail Sales Specialist A 1Seattle, WA$DOE12 Months05/12/2021ADMO,
727 191199 Planner/Scheduler 3Ontario, CAUp to $34.00 DOE6 months05/11/2021PROO,
728 191202 Receiving Inspector 1Arcbald, PAUp to $25.00 DOE9 Months05/11/2021MANO,
729 191207 Quality Engineer 3 5Ridley Park, PA$DOE6 Months05/11/2021ENGO,
730 191208 Information Technology Software Application Developer-Product 3 2Wilsonville, OR$DOE12 Months05/11/2021ITO,
731 191209 Engineer Embedded Software 2 3Rolling Meadows, IL$49.74 to $73.84 DOE9 months05/11/2021ITO, S
732 191213 QC Scientist I 1Cincinnati, OH$DOE12 mos05/11/2021SCIO,
733 191215 Helpdesk Analyst 1King of Prussia, PAUp to $29.19 DOE6 months05/11/2021ITO,
734 191216 Manufacturing Operator 1Carlsbad, CAUp to $15.00 DOE12 mos05/11/2021MANO,
735 191219 Cyber Security Engineer 1Arlington, TXUp to $70.00 DOE12 months05/11/2021ITO, S
736 191222 Product Repair/Mod Technician C 1Stennis Space Center, MS$DOE12 Months05/11/2021MANO, OM
737 191223 Payroll Processor 1Irving, TXUp to $25.00 DOE2 months05/11/2021PROO,
738 191181 Lead Systems Engineer 1Wilmington, MA$DOE11 months05/10/2021ENGO, TS
739 191186 Security Escort 1 4Redondo Beach, CAUp to $20.71 DOE24 months05/10/2021PROO, TS
740 191159 Product Acceptance Specialist D 10San Antonio, TX$DOE12 Months05/07/2021MANHSM,
741 191164 Numerical Control Programmer 4 2Huntington Beach, CA$DOE6 Months05/07/2021MANO,
742 191168 Assember 1Charleston, SC$DOE11 months05/07/2021MANO,
743 191096 Maintenance Technician 1Phoenix, AZ$20 to $35.00 DOE5 months05/06/2021MANO,
744 191111 Assembler D 14San Antonio, TX$DOE6 Months05/06/2021MANO,
745 191124 Industrial Engineer 2 2Everett, WA$DOE2 Months05/06/2021ENGO,
746 191125 Safety Engineer III 1Dallas, TXUp to $55.00 DOE6 months05/06/2021ENGO, OM
747 191130 Microbiologist 1High Point, NCUp to $24.00 DOE6 mos05/06/2021SCIO,
748 191133 Sr Software Engineer II 1Arlington, TX$DOE12 months05/06/2021ITO, S
749 191137 Senior Mechanical Engineer 1Hood River, OR$DOE12 Months05/06/2021ENGO,
750 191140 Configuration Management Analyst 3 1Hood River, OR$DOE6 months05/06/2021ADMO,
751 191141 CAD Designer 3 1Hood River, OR$DOE12 Months05/06/2021ENGO,
752 191142 Project Engineer III 1Hood River, OR$DOE12 months05/06/2021ENGO,
753 191143 Test & Integration Engineer 3 1Hood River, OR$DOE12 months05/06/2021ENGO,
754 191144 Configuration Manager 3Canoga Park, CA$DOE12 months05/06/2021ENGO,
755 191069 HR Generalist I 1Cypress, CA$DOE3 months05/05/2021ADMO,
756 191081 Process Engineer 1Santa Clara, CAUp to $36.00 DOE12 mos05/05/2021ENGO,
757 191083 Material Handler 1Auburn, ALUp to $14.85 DOE12 MOS05/05/2021GENO,
758 191084 Manufacturing Technician 1Pleasanton, CAUp to $20.00 DOE12 months05/05/2021SCIO,
759 191089 Financial Reporting Analyst 5 1Renton, WA$DOE12 Months05/05/2021PROO,
760 191035 Technician I 1Sarasota, FL$DOE7 months05/04/2021MANO,
761 191047 Maintenance Technician 1Tempe, AZ$18 to $25.00 DOE12 months05/04/2021MANO, CON
762 191014 Logistics Technician 1Alsip, IL$DOE12 months05/03/2021GENO,
763 191016 Digital Marketing Campaign Manager 1Chicago, IL$46.84 to $62.98 DOE6 months05/03/2021PROO,
764 191020 Product Repair/Mod Tech C 1New Orleans, LA$DOE12 Months05/03/2021MANO, S
765 191023 Product Repair/Mod Technician C 1Eglin AFB, FL$DOE12 Months05/03/2021MANO, S
766 191024 Product Repair/Mod Tech C 4Eglin AFB, FL$DOE12 Months05/03/2021MANO, S
767 191030 Sr Engineering Technician, Drafter 1Millersburg, PAUp to $26.50 DOE 05/03/2021ITO,
768 191031 Systems Engineer Support Analyst 3 1Berkeley, MO$DOE12 Months05/03/2021ENGO, S
769 191032 Retrofit & Repair Technical Specialist 3 1Tukwila, WA$DOE12 Months05/03/2021PROO, S
770 190992 CAD Operator 3 5Chandler, AZUp to $53.53 DOE12 months04/30/2021ENGO, OM
771 190995 Assembler I-DOT 1Bethlehem, PA$DOE4 months04/30/2021MANO,
772 191004 Software Engineer 5 3El Segundo, CA$DOE12 Months04/30/2021ITO, TS
773 190957 Product Repair/Mod Tech C 1Klamath Falls, OR$DOE12 months04/29/2021MANO, I
774 190964 Lab Technician 2Andover, MA$DOE6 months04/29/2021ENGO,
775 190967 Structures Mechanic 3Beale AFB, CA$DOE9 months04/29/2021MANO, S
776 190968 Electrical Technician 1Beale AFB, CA$DOE9 months04/29/2021MANO, S
777 190973 Production Technician 1Burnsville, MN$22 to $23.00 DOE4 months04/29/2021MANO,
778 190981 IT Customer Support 1Greenville, TXUp to $18.00 DOE7 Months04/29/2021ITO,
779 190926 Product Repair/Mod Tech C 1Seymour Johnson AFB, NC$DOE12 months04/28/2021MANO, S
780 190943 Tester 1Tempe, AZUp to $15.00 DOE6 months04/28/2021MANO,
781 190951 Recruiting Coordinator 1Mesa, AZ$DOE12 Months04/28/2021PROO,
782 190895 Test & Evaluation Lab Technician 3 1Patuxent River, MD$DOE12 months04/27/2021ENGO, S
783 190896 Scientist 1 1Cincinnati, OH$DOE12 mos04/27/2021SCIO,
784 190905 Design Engineer 3Palmdale, Ca$DOE7 months04/27/2021ENGO, I, S
785 190907 Engineer Product 2 3Elkton, MD$42.98 to $53.72 DOE12 months04/27/2021ENGO,
786 190908 Engineer Manufacturing 2 4Goleta, CA$46.76 to $58.45 DOE12 months04/27/2021ENGO,
787 190916 Engineer Electrical 3 2Chandler, AZUp to $94.46 DOE12 months04/27/2021ENGO,
788 190917 Maintenance Trainer 3 4Elkridge, MD$66.12 to $82.65 DOE12 months04/27/2021PROO, S
789 190920 Image Reproduction Operator 2 1Newport News, VA$16.84 to $22.16 DOE1 year04/27/2021ADMO, CON
790 190921 Engineer Material Process 3 3Chandler, AZ$46.9 to $58.63 DOE12 months04/27/2021ENGO, OM
791 190922 Aircraft Structural Assembler-Vertical Lift 9Mesa, AZ$DOE12 Months04/27/2021MANO,
792 190852 Aircraft Mechanic II 80San Antonio, TX$DOE6 months04/26/2021MANHSM,
793 190853 Aircraft Mechanic II 80San Antonio, TX$DOE6 months04/26/2021MANHSM,
794 190855 Manufacturing Associate 1Cambridge, MAUp to $30.00 DOE6 mos04/26/2021MANO,
795 190858 Manufacturing Associate 1Cambridge, MAUp to $30.00 DOE6 mos04/26/2021MANO,
796 190863 CNC Machinist II 4Archbald, PAUp to $26.16 DOE9 months04/26/2021MANO,
797 190868 Receiving Inspector 3 1Chandler, AZ$17.37 to $21.71 DOE12 months04/26/2021MANO,
798 190869 Admin Assistant 1Cincinnati, OHUp to $15.00 DOE3 mos04/26/2021ADMO,
799 190871 Administrative Assistant 1Cincinnati, OHUp to $15.00 DOE3 months04/26/2021ADMO,
800 190877 Manufacturing Technician 2 2Redondo Beach, CA$14.14 to $17.67 DOE12 months04/26/2021MANO,
801 190885 Accountant 1 2Irving, TX$16.85 to $21.06 DOE12 months04/26/2021PROO,
802 190893 Product Acceptance Spec B 46North Charleston, SC$DOE6 Months04/26/2021MANO,
803 190832 Machinist I 1Orlando, FL$DOE6 months04/23/2021MANHSM,
804 190789 Assembler II 1Franklin, MAUp to $18.00 DOE12 mos04/22/2021GENO,
805 190795 Inspector 1Stuart, FLUp to $35.00 DOE12+ months04/22/2021MANO,
806 190805 Manufacturing Engineer 3 4Mesa, AZ$DOE8 Months04/22/2021ENGHSM,
807 190752 Manufacturing Associate 1Cambridge, MAUp to $30.00 DOE6 mos04/21/2021MANO,
808 190766 Construction Supervisor 1San Diego, CA$DOE7 months04/21/2021ADMO,
809 190774 Sales Rep 2Kissimme, Fl$DOE2 months04/21/2021ADMO,
810 190717 Embedded S/W Engineer III 1Orlando, FLUp to $80.00 DOE12 months04/20/2021ITO, OM
811 190739 Customer Service Representative 1Wauwatosa, WI$DOE8 months04/20/2021ADMO,
812 190690 Field Inspector 1Remote, MO$DOE12 months04/19/2021MANO,
813 190695 Configuration Manager II 1Hunstville, AL$DOE12 months04/19/2021ADMO, OM
814 190705 QC Microbiology Analyst 1Cambridge, MA$45 to $45.01 DOE6 mos04/19/2021SCIO,
815 190706 Assembler A 3Sylmar, CA$DOE12 Months04/19/2021MANO,
816 190658 Material Handler II 1Franklin, MAUp to $15.99 DOE3 mos04/16/2021GENO,
817 190672 Software Engineer 2 1Berkeley, MO$DOE6 Months04/16/2021ITO, TS
818 190677 Supply Chain Coordinator 2 2Chandler, AZ$17.5 to $20.00 DOE12 months04/16/2021PROO,
819 190620 Assembler 3 1Elkridge, MD$14.01 to $17.51 DOE24 months04/14/2021MANO,
820 190628 Warehouse Loader 5Indianapolis, INUp to $14.00 DOE2 months04/14/2021GENO,
821 190632 Engineer Communication Systems 2 2Redondo Beach, CA$27.72 to $86.59 DOE6 months04/14/2021ENGO, TS
822 190589 Labeling Support 1Fremont, CAUp to $30.00 DOE 04/13/2021PROO,
823 190598 Manufacturing Engineer 3 1Hazelwood, MO$DOE12 Months04/13/2021ENGHSM, OM
824 190600 Injection Molding Fabricator 4Ontario, CAUp to $17.00 DOE6 months04/13/2021MANO,
825 190602 Systems Engineer 1Wright-Patterson AFB, OHUp to $40.00 DOE7 months04/13/2021ENGO, OM
826 190608 Manufacturing Operations Analyst 3 10San Antonio, TX$DOE6 Months04/13/2021PROHSM,
827 190615 Planner/Scheduler I 1Garden Grove, CAUp to $20.00 DOE3 Months04/13/2021PROO,
828 190565 Machine Operator 1Littleton/ Waterton, CO$DOE15 months04/12/2021MANO,
829 190571 Quality Control Engineer 1Fremont, CAUp to $26.00 DOE8 mos04/12/2021ENGO,
830 190573 Quality Control Specialist 1Fremont, CAUp to $26.00 DOE8 mos04/12/2021ENGO,
831 190542 Software Engineer 1St. Charles, MO$DOE12 months04/09/2021ITO, OM
832 190543 Software Engineer 1St.Charles, MO$DOE12 months04/09/2021ITO, OM
833 190554 Training Device Technician 1 1Hazelwood, MO$DOE12 Months04/09/2021MANO, S
834 190502 Precision Structural Assembler 10Mesa, AZ$DOE6 months04/08/2021MANO,
835 190510 Aircraft Assembly Technician-Vertical Lift 6Mesa, AZ$DOE6 Months04/08/2021MANHSM,
836 190477 Production Scheduler/Customer Service 1Sarasota, FL$20 to $24.00 DOE5 months04/07/2021PROO,
837 190499 Mechanical Engineer 1Fort Worth, TX$DOE12 months04/07/2021ENGO, S
838 190439 Systems Engineer III 1Grand Prairie, TX$DOE9 months04/06/2021ITO, S
839 190457 Project Engineer 5 1Hazelwood, MO$DOE12 Months04/06/2021ENGHSM, OM
840 190458 Embedded S/W Engineer III 1Orlando, FL$DOE12 months04/06/2021ITO, OM
841 190379 QA Specialist 1Fremont, CAUp to $28.00 DOE6 months04/02/2021PROHSM,
842 190380 QC Chemist I 1Pleasanton, CA$DOE12 mos04/02/2021SCIO,
843 190392 Aircraft Structures Mechanic 3 18Lake Charles, LAUp to $29.38 DOE6 months04/02/2021MANO,
844 190394 Assembler 1Skaneateles, NY$DOE12 months04/02/2021MANO,
845 190402 Sys Integratn/Test Engineer III 1Orlando, FLUp to $50.00 DOE12 months04/02/2021ENGO, OM
846 190404 Scientist I, Production (Chemistry) 1Eugene, ORUp to $23.00 DOE12 mos04/02/2021SCIHSM,
847 190408 Product Repair/Mod Tech C 6Tinker AFB, OK$DOE12 Months04/02/2021MANO, I
848 190409 Product Repair/Mod Tech C 6Tinker AFB, OK$DOE12 Months04/02/2021MANO, I
849 190411 Warehouse Worker 1Chino, CAUp to $17.00 DOE12 mos04/02/2021GENO,
850 190353 Systems Architect 4 2Newport News, VA$49.88 to $65.63 DOE1 year04/01/2021ITO,
851 190359 Content Specialist 1Pittsburgh, PAUp to $33.00 DOE4 mos04/01/2021ITO,
852 190315 Product Data Mgmt Engineer 3 1Hazelwood, MO$DOE5 Months03/31/2021ENGO,
853 190323 Technician II 6Orlando, FL$DOE12 months03/31/2021MANCOV,
854 190285 Embedded S/W Engineer III 1Grand Prairie, TX$DOE12 months03/30/2021ITO, S
855 190293 MRO Return Distribution Coordinator 1Bingen, WA$DOE12 Months03/30/2021ADMO,
856 190255 Design Engineer 1Canoga Park, CA$DOE6 months03/29/2021ENGO, OM
857 190256 Design Engineer III 1Canoga Park, CA$DOE6 months03/29/2021ENGO, OM
858 190261 Production Mechanic 20Stuart, FLUp to $30.00 DOE6+ months03/29/2021MANO,
859